createdAt,value
2019-04-27T06:24:14.638Z,98151.12
2019-04-27T06:29:15.516Z,98148.81
2019-04-27T06:34:16.384Z,98146.84
2019-04-27T06:39:20.240Z,98150.41
2019-04-27T06:44:20.165Z,98147.25
2019-04-27T06:49:21.029Z,98155.36
2019-04-27T06:54:21.892Z,98149.50
2019-04-27T06:59:23.048Z,98150.34
2019-04-27T07:04:23.898Z,98159.33
2019-04-27T07:09:24.768Z,98162.47
2019-04-27T07:14:25.646Z,98164.63
2019-04-27T07:19:28.760Z,98167.44
2019-04-27T07:24:29.684Z,98167.16
2019-04-27T07:29:31.010Z,98162.94
2019-04-27T07:34:32.385Z,98165.55
2019-04-27T07:39:33.260Z,98164.48
2019-04-27T07:44:36.052Z,98169.39
2019-04-27T07:49:39.101Z,98166.85
2019-04-27T07:54:40.950Z,98165.85
2019-04-27T07:59:42.248Z,98164.34
2019-04-27T08:04:43.307Z,98157.83
2019-04-27T08:09:44.177Z,98155.09
2019-04-27T08:14:45.156Z,98149.33
2019-04-27T08:19:46.024Z,98147.47
2019-04-27T08:24:46.897Z,98153.22
2019-04-27T08:29:49.703Z,98151.06
2019-04-27T08:34:50.555Z,98163.06
2019-04-27T08:39:51.436Z,98159.83
2019-04-27T08:44:52.321Z,98167.50
2019-04-27T08:49:53.188Z,98163.70
2019-04-27T08:54:54.480Z,98169.45
2019-04-27T08:59:55.334Z,98163.83
2019-04-27T09:04:56.202Z,98168.04
2019-04-27T09:10:05.070Z,98167.00
2019-04-27T09:15:10.852Z,98159.46
2019-04-27T09:20:22.912Z,98162.53
2019-04-27T09:25:23.795Z,98156.23
2019-04-27T09:30:24.652Z,98156.04
2019-04-27T09:35:26.408Z,98154.17
2019-04-27T09:40:28.275Z,98155.38
2019-04-27T09:45:29.263Z,98169.62
2019-04-27T09:50:30.135Z,98161.86
2019-04-27T09:55:31.011Z,98154.77
2019-04-27T10:00:32.012Z,98151.48
2019-04-27T10:05:32.880Z,98156.86
2019-04-27T10:10:33.861Z,98155.96
2019-04-27T10:15:35.639Z,98149.97
2019-04-27T10:20:40.512Z,98148.53
2019-04-27T10:25:39.472Z,98138.83
2019-04-27T10:30:40.351Z,98137.70
2019-04-27T10:35:41.320Z,98130.39
2019-04-27T10:40:42.239Z,98130.62
2019-04-27T10:45:43.235Z,98130.09
2019-04-27T10:50:44.093Z,98131.36
2019-04-27T10:55:46.349Z,98128.38
2019-04-27T11:00:52.603Z,98137.79
2019-04-27T11:06:07.352Z,98128.95
2019-04-27T11:11:08.208Z,98127.29
2019-04-27T11:16:09.192Z,98129.40
2019-04-27T11:21:10.048Z,98129.05
2019-04-27T11:26:10.919Z,98123.59
2019-04-27T11:31:11.896Z,98118.17
2019-04-27T11:36:25.492Z,98117.83
2019-04-27T11:41:26.501Z,98117.93
2019-04-27T11:46:27.912Z,98120.06
2019-04-27T11:51:28.772Z,98123.30
2019-04-27T11:56:29.942Z,98112.35
2019-04-27T12:01:31.163Z,98115.92
2019-04-27T12:06:32.030Z,98115.92
2019-04-27T12:11:32.904Z,98112.05
2019-04-27T12:16:33.776Z,98100.37
2019-04-27T12:21:36.185Z,98087.11
2019-04-27T12:26:57.423Z,98081.70
2019-04-27T12:31:58.733Z,98078.96
2019-04-27T12:36:59.608Z,98070.29
2019-04-27T12:42:00.577Z,98066.75
2019-04-27T12:47:02.651Z,98063.78
2019-04-27T12:52:05.860Z,98068.55
2019-04-27T12:57:20.631Z,98073.70
2019-04-27T13:02:22.541Z,98074.60
2019-04-27T13:07:23.519Z,98049.80
2019-04-27T13:12:25.426Z,98045.67
2019-04-27T13:17:27.780Z,98054.17
2019-04-27T13:22:28.751Z,98039.80
2019-04-27T13:27:29.736Z,98032.58
2019-04-27T13:32:30.612Z,98027.77
2019-04-27T13:37:39.198Z,98021.66
2019-04-27T13:42:45.159Z,98009.64
2019-04-27T13:47:47.949Z,97998.54
2019-04-27T13:52:48.820Z,97989.87
2019-04-27T13:57:50.682Z,97989.10
2019-04-27T14:02:53.471Z,97982.53
2019-04-27T14:07:54.457Z,97975.25
2019-04-27T14:12:55.350Z,97972.27
2019-04-27T14:17:56.210Z,97959.39
2019-04-27T14:23:14.177Z,97950.39
2019-04-27T14:28:15.069Z,97954.12
2019-04-27T14:33:15.923Z,97943.73
2019-04-27T14:38:16.792Z,97937.31
2019-04-27T14:43:18.953Z,97936.55
2019-04-27T14:48:20.057Z,97932.89
2019-04-27T14:53:20.928Z,97931.91
2019-04-27T14:58:21.918Z,97934.22
2019-04-27T15:03:22.876Z,97950.22
2019-04-27T15:08:25.619Z,97943.87
2019-04-27T15:13:26.725Z,97934.55
2019-04-27T15:18:29.714Z,97926.74
2019-04-27T15:23:31.904Z,97931.73
2019-04-27T15:28:34.781Z,97928.33
2019-04-27T15:33:54.919Z,97933.06
2019-04-27T15:39:03.735Z,97925.11
2019-04-27T15:44:08.809Z,97919.55
2019-04-27T15:49:11.241Z,97917.84
2019-04-27T15:54:12.301Z,97913.16
2019-04-27T15:59:13.167Z,97904.37
2019-04-27T16:04:14.022Z,97896.10
2019-04-27T16:09:24.320Z,97897.65
2019-04-27T16:14:21.764Z,97891.58
2019-04-27T16:19:22.636Z,97886.15
2019-04-27T16:24:23.534Z,97877.21
2019-04-27T16:29:28.048Z,97880.38
2019-04-27T16:34:28.649Z,97882.09
2019-04-27T16:39:29.663Z,97866.77
2019-04-27T16:44:30.558Z,97857.41
2019-04-27T16:49:31.428Z,97851.37
2019-04-27T16:54:32.429Z,97850.27
2019-04-27T16:59:43.257Z,97859.25
2019-04-27T17:04:36.185Z,97853.09
2019-04-27T17:09:42.193Z,97849.69
2019-04-27T17:14:41.736Z,97855.59
2019-04-27T17:19:49.914Z,97854.88
2019-04-27T17:24:50.043Z,97853.44
2019-04-27T17:29:57.943Z,97854.67
2019-04-27T17:34:55.610Z,97863.67
2019-04-27T17:39:59.514Z,97851.03
2019-04-27T17:45:00.531Z,97860.06
2019-04-27T17:50:01.707Z,97865.80
2019-04-27T17:55:04.194Z,97868.00
2019-04-27T18:00:08.775Z,97869.53
2019-04-27T18:05:13.826Z,97870.31
2019-04-27T18:10:20.562Z,97871.09
2019-04-27T18:15:16.209Z,97870.84
2019-04-27T18:20:22.375Z,97876.91
2019-04-27T18:25:23.533Z,97886.08
2019-04-27T18:30:28.086Z,97885.97
2019-04-27T18:35:29.660Z,97891.41
2019-04-27T18:40:32.300Z,97895.66
2019-04-27T18:45:38.037Z,97890.04
2019-04-27T18:50:38.703Z,97895.52
2019-04-27T18:55:39.570Z,97909.75
2019-04-27T19:00:40.541Z,97922.09
2019-04-27T19:05:41.403Z,97930.42
2019-04-27T19:10:42.680Z,97931.19
2019-04-27T19:15:43.560Z,97943.13
2019-04-27T19:20:44.428Z,97952.55
2019-04-27T19:25:48.223Z,97960.34
2019-04-27T19:31:00.184Z,97957.70
2019-04-27T19:36:01.055Z,97968.02
2019-04-27T19:41:02.011Z,97959.20
2019-04-27T19:46:03.004Z,97961.28
2019-04-27T19:51:03.895Z,97962.81
2019-04-27T19:56:05.147Z,97961.69
2019-04-27T20:01:11.762Z,97966.53
2019-04-27T20:06:11.838Z,97961.25
2019-04-27T20:11:12.817Z,97958.37
2019-04-27T20:16:13.692Z,97946.26
2019-04-27T20:21:14.554Z,97942.08
2019-04-27T20:26:15.419Z,97938.30
2019-04-27T20:31:16.304Z,97944.47
2019-04-27T20:36:18.194Z,97952.31
2019-04-27T20:41:21.886Z,97965.52
2019-04-27T20:46:22.944Z,97974.45
2019-04-27T20:51:43.875Z,97968.13
2019-04-27T20:56:45.455Z,97969.05
2019-04-27T21:01:46.499Z,97973.37
2019-04-27T21:06:51.028Z,97970.74
2019-04-27T21:11:53.304Z,97968.31
2019-04-27T21:16:54.169Z,97980.45
2019-04-27T21:21:55.036Z,97984.09
2019-04-27T21:26:55.911Z,98033.69
2019-04-27T21:31:56.772Z,98055.37
2019-04-27T21:36:57.746Z,98058.72
2019-04-27T21:41:58.614Z,98062.69
2019-04-27T21:47:00.812Z,98064.00
2019-04-27T21:52:03.788Z,98071.69
2019-04-27T21:57:04.615Z,98068.16
2019-04-27T22:02:07.474Z,98065.58
2019-04-27T22:07:08.442Z,98069.58
2019-04-27T22:12:11.091Z,98078.64
2019-04-27T22:17:12.163Z,98084.59
2019-04-27T22:22:17.724Z,98096.16
2019-04-27T22:27:18.596Z,98109.98
2019-04-27T22:32:19.572Z,98121.29
2019-04-27T22:37:21.316Z,98136.84
2019-04-27T22:42:36.107Z,98151.34
2019-04-27T22:47:37.263Z,98155.45
2019-04-27T22:52:38.115Z,98168.81
2019-04-27T22:57:41.447Z,98190.28
2019-04-27T23:02:47.219Z,98204.93
2019-04-27T23:07:48.079Z,98212.47
